Terminal Aerodrome Forecast
Issued by NWS Sioux Falls, SD

Home | Current Version | Previous Version | Graphics & Text | Print | Product List | Glossary On
Versions: 1 2 3 4 5 6 7 8 9 10 11 12 13 14 15 16 17
000
FTUS43 KFSD 141720
TAFHON
TAF
KHON 141720Z 1418/1518 34005KT P6SM SCT100
     FM142100 35005KT P6SM BKN060
      TEMPO 1506/1508 6SM -RA OVC030
     FM150900 33005KT P6SM SCT040=

USA.gov is the U.S. government's official web portal to all federal, state and local government web resources and services.